Time;durP1;ratioP1;P1;durP2;ratioP2;P2;SDS_P1;SDS_P2;PMS_P1;PMS_P2;Temp;Humidity;BMP_temperature;BMP_pressure;BME280_temperature;BME280_humidity;BME280_pressure;Samples;Min_cycle;Max_cycle;Signal;HPM_P1;HPM_P2
2023/01/12 00:01:23;;;;;;;17.20;1.30;;;6.30;97.30;;;;;;4954593;28;20436;-87
2023/01/12 00:03:49;;;;;;;1.43;1.33;;;6.30;97.30;;;;;;4954688;28;20222;-85
2023/01/12 00:06:15;;;;;;;1.00;0.90;;;6.40;97.30;;;;;;4970685;28;20885;-84
2023/01/12 00:08:41;;;;;;;1.73;1.63;;;6.40;97.30;;;;;;4954370;28;20422;-86
2023/01/12 00:11:06;;;;;;;1.30;1.20;;;6.50;97.30;;;;;;4954540;28;20408;-84
2023/01/12 00:13:32;;;;;;;3.37;3.23;;;6.50;97.30;;;;;;4954582;28;20578;-87
2023/01/12 00:18:46;;;;;;;1.20;1.10;;;6.60;97.30;;;;;;4972043;28;20596;-86
2023/01/12 00:21:13;;;;;;;1.77;1.67;;;6.60;97.30;;;;;;4954220;28;20426;-86
2023/01/12 00:23:39;;;;;;;1.70;1.50;;;6.50;97.30;;;;;;4954027;28;20174;-86
2023/01/12 00:26:07;;;;;;;1.10;1.00;;;6.60;97.30;;;;;;4954231;28;20488;-86
2023/01/12 00:28:37;;;;;;;1.30;1.10;;;6.50;97.30;;;;;;4954045;28;20618;-86
2023/01/12 00:31:06;;;;;;;2.13;1.97;;;6.50;97.30;;;;;;4954079;28;20467;-86
2023/01/12 00:33:33;;;;;;;1.73;1.37;;;6.50;97.30;;;;;;4954162;28;20414;-85
2023/01/12 00:36:02;;;;;;;1.00;0.90;;;6.50;97.30;;;;;;4966703;28;20435;-84
2023/01/12 00:38:28;;;;;;;1.60;1.50;;;6.50;97.30;;;;;;4934849;29;20477;-85
2023/01/12 00:40:53;;;;;;;1.03;0.93;;;6.50;97.30;;;;;;4966896;28;20826;-84
2023/01/12 00:46:03;;;;;;;1.60;1.50;;;6.50;97.30;;;;;;4952098;29;20326;-85
2023/01/12 00:48:29;;;;;;;10.33;1.40;;;6.60;97.30;;;;;;4934663;29;20989;-85
2023/01/12 00:50:55;;;;;;;2.80;2.03;;;6.70;97.30;;;;;;4934817;29;20748;-85
2023/01/12 00:53:20;;;;;;;3.13;2.10;;;6.70;97.30;;;;;;4935032;29;20419;-86
2023/01/12 00:55:46;;;;;;;1.00;0.90;;;6.70;97.30;;;;;;4934986;29;20203;-87
2023/01/12 00:58:11;;;;;;;1.00;0.90;;;6.70;97.30;;;;;;4934697;29;20664;-87
2023/01/12 01:00:37;;;;;;;1.57;1.47;;;6.70;97.30;;;;;;4935044;29;20212;-87
2023/01/12 01:03:02;;;;;;;1.20;1.10;;;6.80;97.30;;;;;;4934998;29;20187;-86
2023/01/12 01:05:29;;;;;;;1.00;0.90;;;6.80;97.30;;;;;;4934780;29;20179;-86
2023/01/12 01:07:54;;;;;;;1.23;1.00;;;6.80;97.30;;;;;;4951722;29;20179;-86
2023/01/12 01:10:20;;;;;;;34.07;1.57;;;6.80;97.30;;;;;;4934595;29;20728;-87
2023/01/12 01:12:45;;;;;;;1.00;0.90;;;6.80;97.30;;;;;;4950530;29;20175;-86
2023/01/12 01:15:11;;;;;;;1.00;0.90;;;6.90;97.30;;;;;;4934705;29;20666;-87
2023/01/12 01:17:37;;;;;;;1.00;0.90;;;6.90;97.30;;;;;;4935481;29;20325;-86
2023/01/12 01:20:03;;;;;;;4.50;1.60;;;6.90;97.30;;;;;;4938608;29;20559;-87
2023/01/12 01:22:29;;;;;;;2.30;2.10;;;6.80;97.30;;;;;;4954140;29;20562;-86
2023/01/12 01:24:54;;;;;;;1.07;0.97;;;6.80;97.30;;;;;;4954744;29;20422;-87
2023/01/12 01:27:20;;;;;;;1.00;0.90;;;6.70;97.30;;;;;;4938011;29;20298;-86
2023/01/12 01:29:45;;;;;;;1.63;1.43;;;6.70;97.30;;;;;;4953891;29;20211;-87
2023/01/12 01:32:11;;;;;;;1.10;1.00;;;6.60;97.30;;;;;;4938326;29;20172;-86
2023/01/12 01:34:36;;;;;;;1.03;0.93;;;6.50;97.30;;;;;;4953855;29;20183;-86
2023/01/12 01:37:02;;;;;;;1.10;1.00;;;6.50;97.30;;;;;;4937921;29;20250;-87
2023/01/12 01:39:27;;;;;;;1.40;1.30;;;6.50;97.30;;;;;;4953822;29;20647;-86
2023/01/12 01:41:53;;;;;;;2.43;2.23;;;6.50;97.30;;;;;;4954082;29;20175;-87
2023/01/12 01:44:28;;;;;;;1.20;1.10;;;6.40;97.30;;;;;;4953741;29;20270;-87
2023/01/12 01:46:58;;;;;;;9.40;1.10;;;6.40;97.30;;;;;;4937986;29;20693;-86
2023/01/12 01:49:39;;;;;;;1.00;0.90;;;6.40;97.30;;;;;;4953829;29;20911;-87
2023/01/12 01:52:19;;;;;;;2.70;2.50;;;6.40;97.30;;;;;;4954032;29;20432;-86
2023/01/12 01:54:53;;;;;;;1.30;1.20;;;6.40;97.30;;;;;;4939469;29;20423;-87
2023/01/12 01:57:21;;;;;;;5.40;1.50;;;6.40;97.30;;;;;;4953612;29;20445;-87
2023/01/12 01:59:52;;;;;;;1.17;1.07;;;6.40;97.30;;;;;;4953294;29;20431;-86
2023/01/12 02:02:18;;;;;;;1.73;1.63;;;6.40;97.30;;;;;;4963946;28;20489;-87
2023/01/12 02:04:44;;;;;;;1.10;1.00;;;6.40;97.30;;;;;;4976048;28;20431;-86
2023/01/12 02:07:10;;;;;;;1.20;1.10;;;6.40;97.30;;;;;;4977719;28;20198;-87
2023/01/12 02:09:36;;;;;;;1.00;0.90;;;6.40;97.30;;;;;;4977258;28;20900;-86
2023/01/12 02:18:01;;;;;;;1.00;0.90;;;6.40;97.30;;;;;;4993289;28;20471;-87
2023/01/12 02:20:35;;;;;;;1.17;1.07;;;6.40;97.30;;;;;;4975769;28;20523;-86
2023/01/12 02:23:26;;;;;;;1.00;0.90;;;6.50;97.30;;;;;;4975933;28;20424;-87
2023/01/12 02:25:51;;;;;;;2.20;1.10;;;6.50;97.30;;;;;;4975354;28;20537;-87
2023/01/12 02:28:53;;;;;;;0.97;0.87;;;6.50;97.30;;;;;;4992537;28;20421;-87
2023/01/12 02:32:01;;;;;;;1.67;1.47;;;6.50;97.30;;;;;;4992755;28;20190;-87
2023/01/12 02:34:43;;;;;;;11.93;4.00;;;6.50;97.30;;;;;;4943555;28;20422;-87
2023/01/12 02:37:37;;;;;;;1.90;1.23;;;6.50;97.30;;;;;;4955835;28;20433;-87
2023/01/12 02:40:09;;;;;;;1.00;0.90;;;6.60;97.30;;;;;;4956051;28;20474;-87
2023/01/12 02:43:14;;;;;;;2.80;2.60;;;6.60;97.30;;;;;;4973476;28;20414;-86
2023/01/12 02:45:46;;;;;;;2.17;1.93;;;6.70;97.30;;;;;;4860148;29;20512;-87
2023/01/12 02:48:24;;;;;;;1.43;1.30;;;6.80;97.30;;;;;;4943308;28;20654;-87
2023/01/12 02:51:10;;;;;;;1.00;0.90;;;6.80;97.30;;;;;;4955687;28;20469;-87
2023/01/12 02:53:43;;;;;;;1.10;1.00;;;6.90;97.30;;;;;;4955880;28;20438;-84
2023/01/12 02:56:12;;;;;;;1.80;1.23;;;7.00;97.30;;;;;;4955522;28;20855;-87
2023/01/12 02:58:43;;;;;;;1.43;1.30;;;7.10;97.30;;;;;;4971851;28;20453;-87
2023/01/12 03:01:10;;;;;;;1.97;1.87;;;7.20;97.30;;;;;;4955579;28;20424;-87
2023/01/12 03:03:38;;;;;;;1.17;1.07;;;7.20;97.30;;;;;;4955509;28;20426;-86
2023/01/12 03:06:05;;;;;;;1.13;1.07;;;7.30;97.30;;;;;;4955667;28;20505;-86
2023/01/12 03:08:31;;;;;;;1.00;0.90;;;7.30;97.30;;;;;;4955426;28;20406;-85
2023/01/12 03:11:07;;;;;;;0.90;0.80;;;7.40;97.30;;;;;;4955170;28;20462;-87
2023/01/12 03:13:36;;;;;;;1.10;1.00;;;7.50;97.30;;;;;;4973103;28;20492;-87
2023/01/12 03:16:04;;;;;;;1.57;1.47;;;7.60;97.30;;;;;;4954949;28;21032;-86
2023/01/12 03:18:37;;;;;;;1.03;0.93;;;7.60;97.30;;;;;;4972291;28;20413;-86
2023/01/12 03:21:14;;;;;;;23.17;3.83;;;7.60;97.30;;;;;;4955372;28;20824;-86
2023/01/12 03:23:48;;;;;;;0.90;0.80;;;7.70;97.30;;;;;;4972745;28;20528;-87
2023/01/12 03:26:17;;;;;;;1.00;0.90;;;7.70;97.30;;;;;;4973525;28;20459;-86
2023/01/12 03:28:49;;;;;;;1.17;1.07;;;7.70;97.30;;;;;;4974597;28;20433;-86
2023/01/12 03:31:14;;;;;;;1.10;1.00;;;7.70;97.30;;;;;;4974948;28;20464;-86
2023/01/12 03:33:41;;;;;;;1.37;1.30;;;7.70;97.30;;;;;;4975847;28;20425;-87
2023/01/12 03:36:19;;;;;;;0.90;0.80;;;7.70;97.30;;;;;;4958253;28;20680;-86
2023/01/12 03:39:00;;;;;;;0.90;0.80;;;7.70;97.30;;;;;;4957457;28;20954;-86
2023/01/12 03:41:53;;;;;;;1.27;1.17;;;7.70;97.30;;;;;;4977990;28;20422;-86
2023/01/12 03:44:27;;;;;;;1.17;1.07;;;7.70;97.30;;;;;;4971723;28;20414;-86
2023/01/12 03:46:57;;;;;;;1.00;0.90;;;7.70;97.30;;;;;;4957849;28;20442;-86
2023/01/12 03:49:35;;;;;;;1.47;1.37;;;7.70;97.30;;;;;;4961252;28;20417;-86
2023/01/12 03:52:03;;;;;;;8.90;1.10;;;7.70;97.30;;;;;;4973213;28;20705;-87
2023/01/12 03:54:29;;;;;;;1.10;1.00;;;7.70;97.30;;;;;;4973117;28;20434;-85
2023/01/12 03:56:55;;;;;;;0.83;0.73;;;7.70;97.30;;;;;;4989949;28;20496;-86
2023/01/12 03:59:21;;;;;;;4.63;2.23;;;7.70;97.30;;;;;;4974709;28;20458;-86
2023/01/12 04:01:47;;;;;;;2.60;2.40;;;7.80;97.30;;;;;;4978300;28;20422;-86
2023/01/12 04:04:13;;;;;;;1.10;1.00;;;7.80;97.30;;;;;;4988988;28;20414;-85
2023/01/12 04:06:39;;;;;;;16.13;1.30;;;7.80;97.30;;;;;;4992626;28;20425;-86
2023/01/12 04:09:05;;;;;;;0.90;0.80;;;7.80;97.30;;;;;;4974165;28;20448;-86
2023/01/12 04:14:15;;;;;;;2.03;1.63;;;7.90;97.30;;;;;;4990905;28;20184;-86
2023/01/12 04:16:40;;;;;;;1.00;0.90;;;7.90;97.30;;;;;;4972780;28;20485;-86
2023/01/12 04:19:06;;;;;;;0.90;0.80;;;7.90;97.30;;;;;;4973152;28;20266;-86
2023/01/12 04:24:11;;;;;;;1.00;0.90;;;7.90;97.30;;;;;;4995874;28;20205;-85
2023/01/12 04:26:36;;;;;;;1.37;1.27;;;7.90;97.30;;;;;;4982162;28;20416;-85
2023/01/12 04:29:02;;;;;;;3.07;2.37;;;7.90;97.30;;;;;;4991962;28;20264;-84
2023/01/12 04:31:27;;;;;;;1.23;0.90;;;8.00;97.30;;;;;;4994366;28;20198;-84
2023/01/12 04:33:53;;;;;;;1.10;1.00;;;8.00;97.30;;;;;;4982884;28;20189;-84
2023/01/12 04:36:19;;;;;;;1.97;1.67;;;8.00;97.30;;;;;;4980988;28;20178;-85
2023/01/12 04:38:45;;;;;;;3.60;1.20;;;8.10;97.30;;;;;;4981445;28;20268;-84
2023/01/12 04:41:11;;;;;;;3.07;2.87;;;8.10;97.30;;;;;;4981075;28;20567;-84
2023/01/12 04:43:36;;;;;;;1.00;0.90;;;8.10;97.30;;;;;;5000600;28;20432;-85
2023/01/12 04:46:09;;;;;;;1.03;0.93;;;8.10;97.30;;;;;;4984418;28;20181;-88
2023/01/12 04:48:36;;;;;;;1.10;1.00;;;8.10;97.30;;;;;;4999959;28;20303;-86
2023/01/12 04:51:02;;;;;;;2.53;1.00;;;8.20;97.30;;;;;;5001983;28;20457;-87
2023/01/12 04:53:28;;;;;;;1.10;1.00;;;8.20;97.30;;;;;;5000862;28;20443;-91
2023/01/12 04:55:54;;;;;;;1.13;1.03;;;8.20;97.30;;;;;;5002955;28;20469;-90
2023/01/12 04:58:20;;;;;;;3.03;1.37;;;8.20;97.30;;;;;;4998686;28;20184;-84
2023/01/12 05:00:45;;;;;;;3.83;2.67;;;8.30;97.30;;;;;;4988338;28;20192;-85
2023/01/12 05:03:12;;;;;;;2.07;1.57;;;8.30;97.30;;;;;;4986040;28;20224;-86
2023/01/12 05:05:37;;;;;;;1.53;0.97;;;8.30;97.30;;;;;;4986573;28;20212;-87
2023/01/12 05:10:49;;;;;;;1.10;1.00;;;8.30;97.30;;;;;;4995882;28;20232;-90
2023/01/12 05:13:15;;;;;;;1.27;1.20;;;8.30;97.30;;;;;;4996676;28;20534;-85
2023/01/12 05:15:40;;;;;;;1.00;0.90;;;8.30;97.30;;;;;;4997423;28;20857;-84
2023/01/12 05:18:06;;;;;;;3.73;1.70;;;8.30;97.30;;;;;;4997413;28;20228;-85
2023/01/12 05:20:31;;;;;;;1.00;0.90;;;8.30;97.30;;;;;;4998752;28;20191;-86
2023/01/12 05:22:57;;;;;;;1.43;1.27;;;8.30;97.30;;;;;;4990150;28;20222;-83
2023/01/12 05:25:22;;;;;;;3.90;1.13;;;8.30;97.30;;;;;;4996796;28;20189;-85
2023/01/12 05:27:48;;;;;;;1.10;1.00;;;8.30;97.30;;;;;;4979666;28;20596;-85
2023/01/12 05:30:14;;;;;;;1.70;1.10;;;8.30;97.30;;;;;;4979476;28;20204;-86
2023/01/12 05:32:43;;;;;;;3.90;1.30;;;8.40;97.30;;;;;;4979074;28;20198;-85
2023/01/12 05:35:09;;;;;;;1.33;1.23;;;8.40;97.30;;;;;;4979902;28;20170;-84
2023/01/12 05:37:34;;;;;;;30.97;2.53;;;8.40;97.30;;;;;;4986725;28;20557;-87
2023/01/12 05:40:00;;;;;;;2.00;1.67;;;8.40;97.30;;;;;;4994699;28;20229;-86
2023/01/12 05:45:10;;;;;;;2.83;1.40;;;8.40;97.30;;;;;;5002064;28;20224;-86
2023/01/12 05:47:36;;;;;;;3.13;1.33;;;8.40;97.30;;;;;;4984454;28;20421;-83
2023/01/12 05:50:02;;;;;;;1.00;0.90;;;8.50;97.30;;;;;;5000490;28;20455;-84
2023/01/12 05:52:28;;;;;;;1.00;0.90;;;8.50;97.30;;;;;;5008328;28;20617;-85
2023/01/12 05:54:53;;;;;;;1.97;1.53;;;8.60;97.30;;;;;;4996455;28;20416;-87
2023/01/12 05:57:19;;;;;;;1.00;0.90;;;8.60;97.30;;;;;;4996429;28;20173;-86
2023/01/12 05:59:44;;;;;;;1.00;0.90;;;8.60;97.30;;;;;;4997072;28;20191;-85
2023/01/12 06:02:12;;;;;;;1.87;1.77;;;8.60;97.30;;;;;;4996377;28;20201;-89
2023/01/12 06:04:38;;;;;;;1.10;1.00;;;8.60;97.30;;;;;;5011691;28;20719;-84
2023/01/12 06:07:04;;;;;;;1.10;1.00;;;8.60;97.30;;;;;;4994094;28;20824;-87
2023/01/12 06:09:30;;;;;;;1.10;1.00;;;8.60;97.30;;;;;;5012345;28;20409;-85
2023/01/12 06:14:39;;;;;;;1.30;1.20;;;8.60;97.30;;;;;;5013033;28;20184;-85
2023/01/12 06:17:04;;;;;;;0.90;0.80;;;8.60;97.30;;;;;;4995336;28;20416;-86
2023/01/12 06:19:30;;;;;;;1.10;1.00;;;8.60;97.30;;;;;;4995125;28;20203;-86
2023/01/12 06:21:58;;;;;;;1.00;0.90;;;8.60;97.30;;;;;;4995719;28;20204;-85
2023/01/12 06:24:26;;;;;;;1.00;0.90;;;8.60;97.30;;;;;;4996271;28;20165;-86
2023/01/12 06:26:52;;;;;;;1.00;0.90;;;8.60;97.30;;;;;;4996172;28;20421;-85
2023/01/12 06:29:18;;;;;;;1.00;0.90;;;8.60;97.30;;;;;;4995902;28;20408;-86
2023/01/12 06:31:43;;;;;;;1.00;0.90;;;8.50;97.30;;;;;;5013035;28;20915;-85
2023/01/12 06:34:10;;;;;;;1.10;1.00;;;8.50;97.30;;;;;;5012265;28;20182;-86
2023/01/12 06:36:36;;;;;;;2.10;1.10;;;8.50;97.30;;;;;;4995697;28;20177;-86
2023/01/12 06:39:02;;;;;;;1.67;1.47;;;8.50;97.30;;;;;;4995342;28;20992;-84
2023/01/12 06:44:12;;;;;;;7.30;1.10;;;8.50;97.30;;;;;;5013950;28;20451;-85
2023/01/12 06:46:37;;;;;;;2.20;1.73;;;8.50;97.30;;;;;;4997689;28;20478;-85
2023/01/12 06:49:03;;;;;;;1.53;1.03;;;8.50;97.30;;;;;;4982916;28;20181;-93
2023/01/12 06:51:28;;;;;;;1.47;1.37;;;8.50;97.30;;;;;;5000940;28;20316;-86
2023/01/12 06:53:54;;;;;;;1.20;1.10;;;8.50;97.30;;;;;;4986833;28;20244;-85
2023/01/12 06:56:20;;;;;;;4.00;1.20;;;8.50;97.30;;;;;;4982184;28;20182;-87
2023/01/12 06:58:45;;;;;;;1.10;1.00;;;8.50;97.30;;;;;;5007723;28;20204;-85
2023/01/12 07:01:12;;;;;;;1.20;1.10;;;8.50;97.30;;;;;;4987453;28;20560;-89
2023/01/12 07:03:38;;;;;;;1.20;1.10;;;8.50;97.30;;;;;;4977102;28;20201;-90
2023/01/12 07:06:04;;;;;;;1.00;0.90;;;8.50;97.30;;;;;;4987797;28;20648;-86
2023/01/12 07:08:31;;;;;;;1.00;0.90;;;8.50;97.30;;;;;;4998562;28;20193;-85
2023/01/12 07:11:03;;;;;;;1.33;1.23;;;8.50;97.30;;;;;;4983535;28;20593;-88
2023/01/12 07:13:30;;;;;;;1.27;1.10;;;8.60;97.30;;;;;;4970964;28;20819;-87
2023/01/12 07:15:59;;;;;;;1.20;1.10;;;8.60;97.30;;;;;;4975937;28;20590;-86
2023/01/12 07:18:26;;;;;;;1.20;1.10;;;8.60;97.30;;;;;;5001865;28;20884;-87
2023/01/12 07:20:52;;;;;;;1.10;1.00;;;8.60;97.30;;;;;;4978312;28;20429;-85
2023/01/12 07:23:18;;;;;;;1.47;1.37;;;8.60;97.30;;;;;;4987018;28;21012;-86
2023/01/12 07:25:43;;;;;;;1.63;1.60;;;8.70;97.30;;;;;;4985112;28;20416;-86
2023/01/12 07:28:11;;;;;;;1.37;1.27;;;8.70;97.30;;;;;;4977295;28;20185;-87
2023/01/12 07:30:37;;;;;;;1.23;1.13;;;8.70;97.30;;;;;;5011436;28;20196;-87
2023/01/12 07:33:09;;;;;;;1.20;1.10;;;8.70;97.30;;;;;;4986302;28;20455;-86
2023/01/12 07:35:35;;;;;;;1.20;1.10;;;8.70;97.30;;;;;;4985979;28;20484;-85
2023/01/12 07:38:00;;;;;;;2.20;1.73;;;8.80;97.30;;;;;;4981770;28;20416;-87
2023/01/12 07:40:26;;;;;;;0.90;0.80;;;8.80;97.30;;;;;;4984814;28;20178;-87
2023/01/12 07:42:59;;;;;;;1.00;0.90;;;8.80;97.30;;;;;;4988762;28;20240;-87
2023/01/12 07:45:25;;;;;;;1.20;1.10;;;8.80;97.30;;;;;;4996774;28;20217;-87
2023/01/12 07:47:54;;;;;;;1.20;1.10;;;8.80;97.30;;;;;;4988239;28;20855;-86
2023/01/12 07:50:23;;;;;;;4.20;1.13;;;8.90;97.30;;;;;;5005132;28;20270;-88
2023/01/12 07:52:49;;;;;;;1.67;1.30;;;8.90;97.30;;;;;;4984640;28;20482;-88
2023/01/12 07:55:17;;;;;;;5.70;1.93;;;8.90;97.30;;;;;;4982623;28;20959;-87
2023/01/12 07:57:51;;;;;;;0.90;0.80;;;8.90;97.30;;;;;;4986652;28;20176;-87
2023/01/12 08:00:17;;;;;;;2.33;2.13;;;8.90;97.30;;;;;;4997465;28;20416;-85
2023/01/12 08:02:43;;;;;;;3.57;1.67;;;8.90;97.30;;;;;;4982946;28;20787;-86
2023/01/12 08:05:08;;;;;;;3.63;2.00;;;8.90;97.30;;;;;;5003492;28;20213;-86
2023/01/12 08:07:34;;;;;;;1.10;1.00;;;8.90;97.30;;;;;;4994478;28;20656;-86
2023/01/12 08:10:01;;;;;;;1.20;1.10;;;8.90;97.30;;;;;;5006025;28;20202;-85
2023/01/12 08:12:29;;;;;;;1.10;1.00;;;8.90;97.30;;;;;;4985121;28;20278;-87
2023/01/12 08:14:55;;;;;;;2.90;2.70;;;8.90;97.30;;;;;;5009988;28;20409;-87
2023/01/12 08:17:22;;;;;;;1.93;1.83;;;8.90;97.30;;;;;;4993035;28;20817;-85
2023/01/12 08:20:02;;;;;;;1.40;1.30;;;8.90;97.30;;;;;;4993197;28;20169;-86
2023/01/12 08:22:33;;;;;;;5.83;1.90;;;8.90;97.30;;;;;;4993464;28;20468;-88
2023/01/12 08:25:09;;;;;;;1.17;1.07;;;8.90;97.30;;;;;;4993175;28;20427;-85
2023/01/12 08:27:38;;;;;;;2.33;2.10;;;8.90;97.30;;;;;;4992563;28;21073;-88
2023/01/12 08:30:07;;;;;;;1.53;1.43;;;8.90;97.30;;;;;;4993887;28;20467;-87
2023/01/12 08:32:34;;;;;;;2.57;2.10;;;8.90;97.30;;;;;;4983604;28;21007;-89
2023/01/12 08:35:01;;;;;;;1.10;1.00;;;8.90;97.30;;;;;;4981970;28;20500;-85
2023/01/12 08:37:28;;;;;;;3.80;2.30;;;9.00;97.30;;;;;;5010690;28;20589;-87
2023/01/12 08:39:54;;;;;;;8.90;2.80;;;9.00;97.30;;;;;;4994552;28;20523;-86
2023/01/12 08:42:22;;;;;;;1.00;0.90;;;9.00;97.30;;;;;;4994225;28;20467;-86
2023/01/12 08:44:48;;;;;;;1.00;0.90;;;9.00;97.30;;;;;;4993669;28;20416;-85
2023/01/12 08:47:20;;;;;;;5.70;2.13;;;9.00;97.30;;;;;;5011043;28;20495;-86
2023/01/12 08:49:45;;;;;;;0.90;0.80;;;9.10;97.30;;;;;;4994211;28;20583;-87
2023/01/12 08:52:12;;;;;;;1.00;0.90;;;9.10;97.30;;;;;;5010546;28;20437;-85
2023/01/12 08:54:38;;;;;;;0.90;0.80;;;9.10;97.30;;;;;;4994193;28;20173;-85
2023/01/12 08:57:03;;;;;;;2.70;1.47;;;9.10;97.30;;;;;;4993422;28;20474;-86
2023/01/12 08:59:29;;;;;;;1.53;1.43;;;9.10;97.30;;;;;;5010194;28;20413;-86
2023/01/12 09:01:55;;;;;;;1.57;1.00;;;9.20;97.30;;;;;;5011933;28;20679;-86
2023/01/12 09:04:20;;;;;;;2.17;2.00;;;9.20;97.30;;;;;;5010138;28;20177;-87
2023/01/12 09:06:47;;;;;;;1.33;1.23;;;9.20;97.30;;;;;;5010426;28;20900;-87
2023/01/12 09:09:15;;;;;;;1.57;1.47;;;9.20;97.30;;;;;;5010160;28;20262;-86
2023/01/12 09:11:42;;;;;;;0.80;0.80;;;9.20;97.30;;;;;;4993647;28;20467;-85
2023/01/12 09:14:09;;;;;;;1.20;1.10;;;9.20;97.30;;;;;;4993628;28;20419;-86
2023/01/12 09:16:35;;;;;;;2.03;1.90;;;9.20;97.30;;;;;;4994432;28;20404;-91
2023/01/12 09:19:01;;;;;;;1.00;0.90;;;9.20;97.30;;;;;;4993911;28;20423;-86
2023/01/12 09:21:28;;;;;;;5.70;2.30;;;9.30;97.30;;;;;;4994095;28;20412;-85
2023/01/12 09:23:54;;;;;;;1.97;1.10;;;9.30;97.30;;;;;;4993667;28;20472;-84
2023/01/12 09:26:21;;;;;;;2.03;1.87;;;9.30;97.30;;;;;;4993574;28;20499;-87
2023/01/12 09:28:47;;;;;;;0.90;0.80;;;9.30;97.30;;;;;;4994362;28;20435;-86
2023/01/12 09:31:15;;;;;;;1.20;1.10;;;9.40;97.30;;;;;;5010204;28;20456;-87
2023/01/12 09:33:42;;;;;;;1.17;1.07;;;9.40;97.30;;;;;;4993665;28;20544;-86
2023/01/12 09:36:13;;;;;;;1.47;1.40;;;9.50;97.30;;;;;;4993724;28;20467;-86
2023/01/12 09:38:40;;;;;;;1.00;0.90;;;9.50;97.30;;;;;;4995378;28;20415;-86
2023/01/12 09:41:15;;;;;;;1.00;0.90;;;9.60;97.30;;;;;;4997741;28;20867;-85
2023/01/12 09:49:23;;;;;;;0.97;0.87;;;9.60;97.30;;;;;;5007218;28;20848;-87
2023/01/12 09:52:14;;;;;;;1.43;1.10;;;9.60;97.30;;;;;;4996520;28;20534;-86
2023/01/12 09:54:40;;;;;;;1.00;0.90;;;9.60;97.30;;;;;;4996766;28;20416;-84
2023/01/12 09:57:11;;;;;;;3.87;1.70;;;9.60;97.30;;;;;;5014610;28;20579;-86
2023/01/12 10:00:04;;;;;;;3.70;1.63;;;9.60;97.30;;;;;;4997273;28;20471;-86
2023/01/12 10:02:36;;;;;;;1.37;1.27;;;9.60;97.30;;;;;;5014834;28;20416;-86
2023/01/12 10:05:13;;;;;;;2.60;1.13;;;9.60;97.30;;;;;;4996814;28;20412;-88
2023/01/12 10:07:39;;;;;;;0.90;0.80;;;9.60;97.30;;;;;;4997076;28;20420;-88
2023/01/12 10:10:05;;;;;;;0.90;0.80;;;9.70;97.30;;;;;;5014640;28;20864;-86
2023/01/12 10:12:40;;;;;;;1.47;1.40;;;9.70;97.30;;;;;;4997636;28;20197;-87
2023/01/12 10:15:12;;;;;;;0.90;0.80;;;9.70;97.30;;;;;;5015060;28;20415;-85
2023/01/12 10:18:18;;;;;;;0.93;0.83;;;9.70;97.30;;;;;;4997704;28;20887;-85
2023/01/12 10:20:44;;;;;;;1.00;0.90;;;9.80;97.30;;;;;;4997114;28;20424;-85
2023/01/12 10:23:17;;;;;;;1.63;1.53;;;9.80;97.30;;;;;;5002818;23;20501;-89
2023/01/12 10:25:53;;;;;;;1.00;0.90;;;9.80;97.30;;;;;;4984326;28;20190;-91
2023/01/12 10:28:32;;;;;;;1.83;1.73;;;9.90;97.30;;;;;;4976318;28;20704;-89
2023/01/12 10:30:58;;;;;;;1.60;1.50;;;9.90;97.30;;;;;;4975972;28;20846;-90
2023/01/12 10:33:24;;;;;;;2.17;2.03;;;9.90;97.30;;;;;;4976491;28;20737;-90
2023/01/12 10:36:05;;;;;;;1.00;0.90;;;9.90;97.30;;;;;;4975969;28;20420;-89
2023/01/12 10:38:34;;;;;;;1.00;0.90;;;9.90;97.30;;;;;;4976686;28;20417;-90
2023/01/12 10:41:09;;;;;;;1.23;1.20;;;9.90;97.30;;;;;;4975966;28;20432;-91
2023/01/12 10:43:36;;;;;;;1.10;1.00;;;9.90;97.30;;;;;;4976378;28;20502;-90
2023/01/12 10:46:12;;;;;;;1.13;1.03;;;9.90;97.30;;;;;;4976095;28;20444;-90
2023/01/12 10:48:48;;;;;;;4.20;1.67;;;9.90;97.30;;;;;;4976356;28;20421;-91
2023/01/12 10:51:28;;;;;;;1.00;0.90;;;9.90;97.30;;;;;;4975165;28;20560;-89
2023/01/12 10:54:21;;;;;;;1.10;1.00;;;10.00;97.30;;;;;;4976468;28;20462;-89
2023/01/12 10:56:57;;;;;;;0.90;0.80;;;10.00;97.30;;;;;;4975865;28;20413;-90
2023/01/12 10:59:28;;;;;;;1.10;1.00;;;10.00;97.30;;;;;;4976239;28;20475;-89
2023/01/12 11:02:10;;;;;;;1.63;1.53;;;10.00;97.30;;;;;;4976088;28;20417;-89
2023/01/12 11:04:46;;;;;;;1.03;0.93;;;10.00;97.30;;;;;;4975996;28;20409;-90
2023/01/12 11:07:15;;;;;;;0.97;0.87;;;10.00;97.30;;;;;;4993314;28;20423;-89
2023/01/12 11:09:42;;;;;;;1.00;0.90;;;10.00;97.30;;;;;;4975762;28;20420;-90
2023/01/12 11:12:30;;;;;;;1.00;0.90;;;10.00;97.30;;;;;;4977283;28;20483;-89
2023/01/12 11:15:10;;;;;;;1.00;0.90;;;10.00;97.30;;;;;;4956327;28;20414;-89
2023/01/12 11:17:48;;;;;;;0.90;0.80;;;10.00;97.30;;;;;;4972989;28;20428;-90
2023/01/12 11:20:38;;;;;;;0.90;0.80;;;10.00;97.30;;;;;;4956116;28;20417;-89
2023/01/12 11:23:23;;;;;;;0.93;0.83;;;10.00;97.30;;;;;;4972832;28;20840;-90
2023/01/12 11:25:51;;;;;;;1.23;1.10;;;10.00;97.30;;;;;;4973534;28;20414;-90
2023/01/12 11:28:25;;;;;;;0.90;0.80;;;10.00;97.30;;;;;;4956307;28;20521;-89
2023/01/12 11:30:56;;;;;;;0.90;0.80;;;10.00;97.30;;;;;;4955633;28;20458;-88
2023/01/12 11:33:33;;;;;;;1.27;1.17;;;10.00;97.30;;;;;;4955750;28;20446;-89
2023/01/12 11:36:05;;;;;;;0.87;0.77;;;10.00;97.30;;;;;;4989365;28;20424;-90
2023/01/12 11:38:44;;;;;;;0.90;0.83;;;10.00;97.30;;;;;;4975409;28;20408;-90
2023/01/12 11:41:24;;;;;;;1.10;1.00;;;10.00;97.30;;;;;;4974812;28;20512;-89
2023/01/12 11:44:26;;;;;;;1.10;1.00;;;9.90;97.30;;;;;;4982290;28;20433;-89
2023/01/12 11:47:11;;;;;;;1.00;0.90;;;9.90;97.30;;;;;;4975446;28;20796;-89
2023/01/12 11:49:52;;;;;;;1.00;0.90;;;9.80;97.30;;;;;;4975455;28;20823;-89
2023/01/12 11:52:17;;;;;;;1.20;1.10;;;9.70;97.30;;;;;;4976551;28;20475;-88
2023/01/12 11:54:43;;;;;;;1.00;0.90;;;9.70;97.30;;;;;;4978987;28;20972;-91
2023/01/12 11:57:45;;;;;;;0.93;0.83;;;9.70;97.30;;;;;;4990862;28;20177;-88
2023/01/12 12:00:39;;;;;;;1.00;0.90;;;9.60;97.30;;;;;;4974818;28;20230;-88
2023/01/12 12:03:26;;;;;;;1.47;1.37;;;9.60;97.30;;;;;;4974937;28;20464;-89
2023/01/12 12:06:08;;;;;;;1.00;0.90;;;9.60;97.30;;;;;;4974918;28;20429;-89
2023/01/12 12:08:59;;;;;;;0.90;0.80;;;9.50;97.30;;;;;;4975406;28;20420;-90
2023/01/12 12:11:49;;;;;;;4.17;1.40;;;9.40;97.30;;;;;;4975118;28;21001;-88
2023/01/12 12:14:32;;;;;;;1.00;0.90;;;9.30;97.30;;;;;;4992411;28;20425;-89
2023/01/12 12:17:15;;;;;;;0.60;0.60;;;9.30;97.30;;;;;;4974655;28;20424;-90
2023/01/12 12:19:55;;;;;;;1.83;1.30;;;9.30;97.30;;;;;;4974385;28;20416;-90
2023/01/12 12:22:38;;;;;;;1.00;0.90;;;9.20;97.30;;;;;;4974801;28;20444;-90
2023/01/12 12:25:29;;;;;;;0.90;0.80;;;9.20;97.30;;;;;;4974271;28;20424;-91
2023/01/12 12:28:40;;;;;;;1.00;0.90;;;9.20;97.30;;;;;;4974739;28;20417;-90
2023/01/12 12:31:45;;;;;;;0.90;0.80;;;9.10;97.30;;;;;;4976538;28;20451;-90
2023/01/12 12:34:53;;;;;;;1.00;0.90;;;9.10;97.30;;;;;;4992456;28;20511;-91
2023/01/12 12:37:58;;;;;;;1.00;0.90;;;9.00;97.30;;;;;;4990477;28;20970;-91
2023/01/12 12:46:53;;;;;;;1.00;0.90;;;9.00;97.30;;;;;;4992321;28;20981;-90
2023/01/12 12:49:24;;;;;;;0.90;0.80;;;9.00;97.30;;;;;;4975744;28;20630;-91
2023/01/12 12:51:50;;;;;;;1.00;0.90;;;9.00;97.30;;;;;;4976099;28;20511;-90
2023/01/12 12:54:19;;;;;;;2.63;1.00;;;9.00;97.30;;;;;;4974230;28;20447;-89
2023/01/12 12:56:45;;;;;;;1.00;0.90;;;9.00;97.30;;;;;;4974850;28;20448;-90
2023/01/12 12:59:31;;;;;;;0.90;0.80;;;9.00;97.30;;;;;;4974390;28;20412;-92
2023/01/12 13:02:01;;;;;;;1.10;1.00;;;9.10;97.30;;;;;;4974449;28;20416;-91
2023/01/12 13:04:42;;;;;;;0.93;0.83;;;9.10;97.30;;;;;;4974335;28;20424;-90
2023/01/12 13:07:14;;;;;;;1.00;0.90;;;9.10;97.30;;;;;;4974343;28;20417;-90
2023/01/12 13:09:40;;;;;;;3.05;1.35;;;9.10;97.30;;;;;;4974061;28;20460;-91
2023/01/12 13:12:06;;;;;;;0.80;0.70;;;9.10;97.30;;;;;;4974373;28;20440;-90
2023/01/12 13:14:37;;;;;;;0.93;0.83;;;9.10;97.30;;;;;;4977026;28;20924;-91
2023/01/12 13:17:17;;;;;;;1.00;0.90;;;9.20;97.30;;;;;;4978312;28;20181;-91
2023/01/12 13:19:45;;;;;;;1.00;1.00;;;9.20;97.30;;;;;;4977704;28;20425;-90
2023/01/12 13:22:31;;;;;;;1.30;1.10;;;9.30;97.30;;;;;;4978157;28;20456;-90
2023/01/12 13:25:08;;;;;;;1.00;0.90;;;9.40;97.30;;;;;;4978506;28;20425;-90
2023/01/12 13:27:58;;;;;;;0.97;0.87;;;9.40;97.30;;;;;;4978066;28;20439;-91
2023/01/12 13:30:30;;;;;;;1.10;1.00;;;9.40;97.30;;;;;;4977983;28;21071;-90
2023/01/12 13:32:58;;;;;;;1.00;0.90;;;9.50;97.30;;;;;;4984164;28;20512;-91
2023/01/12 13:35:47;;;;;;;0.90;0.80;;;9.50;97.30;;;;;;4979473;28;20419;-90
2023/01/12 13:38:38;;;;;;;1.00;0.90;;;9.50;97.30;;;;;;4959313;28;20944;-92
2023/01/12 13:41:12;;;;;;;1.20;0.93;;;9.60;97.30;;;;;;4976368;28;20421;-90
2023/01/12 13:43:56;;;;;;;1.07;0.97;;;9.70;97.30;;;;;;4977510;28;20447;-91
2023/01/12 13:46:40;;;;;;;1.00;0.90;;;9.70;97.30;;;;;;4976988;28;20536;-89
2023/01/12 13:49:24;;;;;;;1.40;1.30;;;9.80;97.30;;;;;;4977378;28;20939;-90
2023/01/12 13:52:05;;;;;;;1.00;0.90;;;9.80;97.30;;;;;;4994874;28;20466;-91
2023/01/12 13:54:32;;;;;;;1.00;0.90;;;9.80;97.30;;;;;;4995723;28;20570;-91
2023/01/12 13:57:17;;;;;;;1.10;1.00;;;9.80;97.30;;;;;;4994326;28;20464;-90